createdAt,value
2016-12-14T00:00:52.244Z,1018.75
2016-12-14T00:02:01.544Z,1018.74
2016-12-14T00:03:10.271Z,1018.73
2016-12-14T00:04:19.278Z,1018.74
2016-12-14T00:05:28.582Z,1018.75
2016-12-14T00:06:37.614Z,1018.74
2016-12-14T00:07:46.311Z,1018.68
2016-12-14T00:08:55.306Z,1018.67
2016-12-14T00:10:04.310Z,1018.69
2016-12-14T00:11:13.027Z,1018.63
2016-12-14T00:12:22.079Z,1018.67
2016-12-14T00:13:31.389Z,1018.65
2016-12-14T00:14:40.113Z,1018.68
2016-12-14T00:15:48.843Z,1018.64
2016-12-14T00:16:58.164Z,1018.71
2016-12-14T00:18:07.156Z,1018.69
2016-12-14T00:19:16.542Z,1018.63
2016-12-14T00:20:25.533Z,1018.64
2016-12-14T00:21:34.536Z,1018.62
2016-12-14T00:22:43.891Z,1018.69
2016-12-14T00:23:53.201Z,1018.71
2016-12-14T00:25:01.884Z,1018.69
2016-12-14T00:26:10.931Z,1018.67
2016-12-14T00:27:19.934Z,1018.73
2016-12-14T00:28:28.629Z,1018.76
2016-12-14T00:29:37.620Z,1018.76
2016-12-14T00:30:46.628Z,1018.71
2016-12-14T00:31:56.236Z,1018.77
2016-12-14T00:33:06.172Z,1018.77
2016-12-14T00:34:15.808Z,1018.79
2016-12-14T00:35:24.833Z,1018.77
2016-12-14T00:36:33.844Z,1018.76
2016-12-14T00:37:43.144Z,1018.8
2016-12-14T00:38:52.152Z,1018.8
2016-12-14T00:40:01.466Z,1018.8
2016-12-14T00:41:10.160Z,1018.78
2016-12-14T00:42:18.862Z,1018.82
2016-12-14T00:43:27.560Z,1018.78
2016-12-14T00:44:36.250Z,1018.76
2016-12-14T00:45:45.596Z,1018.79
2016-12-14T00:46:54.278Z,1018.77
2016-12-14T00:48:03.285Z,1018.71
2016-12-14T00:49:12.037Z,1018.76
2016-12-14T00:50:21.079Z,1018.66
2016-12-14T00:51:29.762Z,1018.69
2016-12-14T00:52:38.779Z,1018.68
2016-12-14T00:53:47.810Z,1018.66
2016-12-14T00:54:56.563Z,1018.67
2016-12-14T00:56:05.883Z,1018.66
2016-12-14T00:57:14.879Z,1018.7
2016-12-14T00:58:23.580Z,1018.69
2016-12-14T00:59:32.913Z,1018.69
2016-12-14T01:00:41.906Z,1018.73
2016-12-14T01:01:50.905Z,1018.71
2016-12-14T01:03:00.529Z,1018.73
2016-12-14T01:04:09.535Z,1018.72
2016-12-14T01:05:18.563Z,1018.74
2016-12-14T01:06:27.265Z,1018.7
2016-12-14T01:07:36.277Z,1018.69
2016-12-14T01:08:44.966Z,1018.72
2016-12-14T01:09:53.661Z,1018.71
2016-12-14T01:11:02.671Z,1018.7
2016-12-14T01:12:11.382Z,1018.73
2016-12-14T01:13:20.104Z,1018.72
2016-12-14T01:14:29.131Z,1018.71
2016-12-14T01:15:38.452Z,1018.75
2016-12-14T01:16:47.784Z,1018.71
2016-12-14T01:17:56.469Z,1018.71
2016-12-14T01:19:05.464Z,1018.74
2016-12-14T01:20:14.765Z,1018.75
2016-12-14T01:21:24.080Z,1018.8
2016-12-14T01:22:32.753Z,1018.77
2016-12-14T01:23:42.055Z,1018.79
2016-12-14T01:24:51.041Z,1018.76
2016-12-14T01:26:00.374Z,1018.78
2016-12-14T01:27:09.368Z,1018.77
2016-12-14T01:28:18.660Z,1018.78
2016-12-14T01:29:28.321Z,1018.74
2016-12-14T01:30:37.357Z,1018.74
2016-12-14T01:31:46.356Z,1018.74
2016-12-14T01:32:55.653Z,1018.76
2016-12-14T01:34:05.279Z,1018.75
2016-12-14T01:35:14.284Z,1018.74
2016-12-14T01:36:23.576Z,1018.7
2016-12-14T01:37:32.873Z,1018.73
2016-12-14T01:38:41.872Z,1018.72
2016-12-14T01:39:51.164Z,1018.72
2016-12-14T01:41:00.462Z,1018.76
2016-12-14T01:42:09.763Z,1018.74
2016-12-14T01:43:18.444Z,1018.75
2016-12-14T01:44:27.426Z,1018.75
2016-12-14T01:45:36.119Z,1018.75
2016-12-14T01:46:45.108Z,1018.74
2016-12-14T01:47:54.407Z,1018.75
2016-12-14T01:49:03.391Z,1018.77
2016-12-14T01:50:12.077Z,1018.76
2016-12-14T01:51:21.379Z,1018.74
2016-12-14T01:52:30.069Z,1018.74
2016-12-14T01:53:38.794Z,1018.72
2016-12-14T01:54:47.481Z,1018.67
2016-12-14T01:55:56.475Z,1018.68
2016-12-14T01:57:05.466Z,1018.64
2016-12-14T01:58:14.773Z,1018.66
2016-12-14T01:59:23.461Z,1018.59
2016-12-14T02:00:33.368Z,1018.59
2016-12-14T02:01:42.372Z,1018.59
2016-12-14T02:02:51.379Z,1018.57
2016-12-14T02:04:00.678Z,1018.59
2016-12-14T02:05:09.353Z,1018.58
2016-12-14T02:06:18.330Z,1018.58
2016-12-14T02:07:27.943Z,1018.57
2016-12-14T02:08:36.948Z,1018.58
2016-12-14T02:09:46.246Z,1018.59
2016-12-14T02:10:55.570Z,1018.59
2016-12-14T02:12:04.877Z,1018.58
2016-12-14T02:13:14.179Z,1018.64
2016-12-14T02:14:23.470Z,1018.63
2016-12-14T02:15:32.477Z,1018.64
2016-12-14T02:16:42.116Z,1018.57
2016-12-14T02:17:50.809Z,1018.59
2016-12-14T02:18:59.493Z,1018.6
2016-12-14T02:20:08.477Z,1018.58
2016-12-14T02:21:17.459Z,1018.57
2016-12-14T02:22:26.447Z,1018.55
2016-12-14T02:23:35.747Z,1018.54
2016-12-14T02:24:44.758Z,1018.53
2016-12-14T02:25:53.736Z,1018.57
2016-12-14T02:27:02.425Z,1018.61
2016-12-14T02:28:11.407Z,1018.58
2016-12-14T02:29:20.096Z,1018.55
2016-12-14T02:30:29.078Z,1018.53
2016-12-14T02:31:38.109Z,1018.48
2016-12-14T02:32:47.101Z,1018.49
2016-12-14T02:33:55.796Z,1018.47
2016-12-14T02:35:04.532Z,1018.46
2016-12-14T02:36:13.253Z,1018.47
2016-12-14T02:37:21.936Z,1018.44
2016-12-14T02:38:31.241Z,1018.38
2016-12-14T02:39:39.925Z,1018.44
2016-12-14T02:40:49.237Z,1018.47
2016-12-14T02:41:58.531Z,1018.5
2016-12-14T02:43:07.545Z,1018.48
2016-12-14T02:44:16.232Z,1018.49
2016-12-14T02:45:24.933Z,1018.5
2016-12-14T02:46:34.237Z,1018.54
2016-12-14T02:47:43.253Z,1018.54
2016-12-14T02:48:52.856Z,1018.53
2016-12-14T02:50:02.465Z,1018.5
2016-12-14T02:51:11.770Z,1018.54
2016-12-14T02:52:20.454Z,1018.56
2016-12-14T02:53:29.459Z,1018.54
2016-12-14T02:54:38.158Z,1018.55
2016-12-14T02:55:46.844Z,1018.54
2016-12-14T02:56:56.494Z,1018.57
2016-12-14T02:58:05.176Z,1018.53
2016-12-14T02:59:13.896Z,1018.56
2016-12-14T03:00:22.886Z,1018.58
2016-12-14T03:01:31.874Z,1018.56
2016-12-14T03:02:41.158Z,1018.54
2016-12-14T03:03:50.773Z,1018.54
2016-12-14T03:04:59.472Z,1018.59
2016-12-14T03:06:08.469Z,1018.6
2016-12-14T03:07:17.458Z,1018.58
2016-12-14T03:08:26.147Z,1018.56
2016-12-14T03:09:35.147Z,1018.57
2016-12-14T03:10:44.740Z,1018.56
2016-12-14T03:11:53.722Z,1018.54
2016-12-14T03:13:02.713Z,1018.58
2016-12-14T03:14:11.717Z,1018.59
2016-12-14T03:15:20.409Z,1018.58
2016-12-14T03:16:30.023Z,1018.59
2016-12-14T03:17:39.319Z,1018.62
2016-12-14T03:18:48.307Z,1018.62
2016-12-14T03:19:57.620Z,1018.64
2016-12-14T03:21:06.308Z,1018.59
2016-12-14T03:22:15.029Z,1018.61
2016-12-14T03:23:23.716Z,1018.66
2016-12-14T03:24:32.723Z,1018.65
2016-12-14T03:25:41.410Z,1018.64
2016-12-14T03:26:50.098Z,1018.66
2016-12-14T03:27:59.118Z,1018.64
2016-12-14T03:29:07.801Z,1018.63
2016-12-14T03:30:17.101Z,1018.63
2016-12-14T03:31:25.788Z,1018.69
2016-12-14T03:32:34.517Z,1018.68
2016-12-14T03:33:43.233Z,1018.69
2016-12-14T03:34:52.260Z,1018.67
2016-12-14T03:36:01.553Z,1018.68
2016-12-14T03:37:10.883Z,1018.67
2016-12-14T03:38:20.202Z,1018.7
2016-12-14T03:39:28.895Z,1018.7
2016-12-14T03:40:38.804Z,1018.74
2016-12-14T03:41:48.099Z,1018.7
2016-12-14T03:42:56.820Z,1018.68
2016-12-14T03:44:05.817Z,1018.72
2016-12-14T03:45:14.502Z,1018.71
2016-12-14T03:46:23.172Z,1018.68
2016-12-14T03:47:31.865Z,1018.72
2016-12-14T03:48:40.884Z,1018.71
2016-12-14T03:49:49.560Z,1018.74
2016-12-14T03:50:58.264Z,1018.72
2016-12-14T03:52:07.303Z,1018.71
2016-12-14T03:53:16.587Z,1018.72
2016-12-14T03:54:25.577Z,1018.72
2016-12-14T03:55:34.869Z,1018.68
2016-12-14T03:56:43.858Z,1018.69
2016-12-14T03:57:52.535Z,1018.66
2016-12-14T03:59:01.833Z,1018.63
2016-12-14T04:00:10.823Z,1018.65
2016-12-14T04:01:20.122Z,1018.69
2016-12-14T04:02:29.443Z,1018.71
2016-12-14T04:03:38.448Z,1018.69
2016-12-14T04:04:47.776Z,1018.68
2016-12-14T04:05:56.455Z,1018.7
2016-12-14T04:07:05.447Z,1018.7
2016-12-14T04:10:46.803Z,1018.67
2016-12-14T04:11:55.473Z,1018.71
2016-12-14T04:15:36.840Z,1018.74
2016-12-14T04:16:45.530Z,1018.74
2016-12-14T04:17:54.504Z,1018.7
2016-12-14T04:19:03.819Z,1018.68
2016-12-14T04:20:12.830Z,1018.64
2016-12-14T04:21:21.523Z,1018.65
2016-12-14T04:22:30.508Z,1018.65
2016-12-14T04:23:39.525Z,1018.67
2016-12-14T04:24:48.512Z,1018.69
2016-12-14T04:25:57.200Z,1018.69
2016-12-14T04:27:05.953Z,1018.68
2016-12-14T04:28:15.569Z,1018.71
2016-12-14T04:29:24.864Z,1018.7
2016-12-14T04:30:34.169Z,1018.7
2016-12-14T04:31:43.478Z,1018.73
2016-12-14T04:32:52.155Z,1018.73
2016-12-14T04:34:01.462Z,1018.69
2016-12-14T04:35:10.170Z,1018.66
2016-12-14T04:36:19.160Z,1018.66
2016-12-14T04:37:28.779Z,1018.61
2016-12-14T04:38:37.513Z,1018.59
2016-12-14T04:39:46.596Z,1018.59
2016-12-14T04:40:56.226Z,1018.53
2016-12-14T04:42:05.543Z,1018.5
2016-12-14T04:43:14.559Z,1018.48
2016-12-14T04:44:23.588Z,1018.5
2016-12-14T04:45:32.882Z,1018.49
2016-12-14T04:46:41.881Z,1018.49
2016-12-14T04:47:50.887Z,1018.51
2016-12-14T04:49:00.496Z,1018.51
2016-12-14T04:50:09.518Z,1018.54
2016-12-14T04:51:18.510Z,1018.52
2016-12-14T04:52:27.504Z,1018.48
2016-12-14T04:53:36.832Z,1018.49
2016-12-14T04:54:45.841Z,1018.51
2016-12-14T04:55:55.148Z,1018.49
2016-12-14T04:57:04.193Z,1018.53
2016-12-14T04:58:13.205Z,1018.51
2016-12-14T04:59:21.895Z,1018.52
2016-12-14T05:00:31.550Z,1018.5
2016-12-14T05:01:40.547Z,1018.54
2016-12-14T05:02:49.531Z,1018.49
2016-12-14T05:03:58.891Z,1018.5
2016-12-14T05:05:07.625Z,1018.47
2016-12-14T05:06:17.571Z,1018.49
2016-12-14T05:07:26.583Z,1018.5
2016-12-14T05:08:35.354Z,1018.5
2016-12-14T05:09:44.358Z,1018.49
2016-12-14T05:10:53.998Z,1018.52
2016-12-14T05:12:03.328Z,1018.55
2016-12-14T05:13:12.356Z,1018.56
2016-12-14T05:14:21.038Z,1018.59
2016-12-14T05:15:30.342Z,1018.58
2016-12-14T05:16:39.404Z,1018.59
2016-12-14T05:17:48.125Z,1018.59
2016-12-14T05:18:57.127Z,1018.59
2016-12-14T05:20:06.433Z,1018.57
2016-12-14T05:21:15.737Z,1018.58
2016-12-14T05:22:24.449Z,1018.57
2016-12-14T05:23:33.439Z,1018.55
2016-12-14T05:24:42.753Z,1018.54
2016-12-14T05:25:51.789Z,1018.56
2016-12-14T05:27:00.882Z,1018.57
2016-12-14T05:28:10.224Z,1018.55
2016-12-14T05:29:19.252Z,1018.58
2016-12-14T05:30:28.555Z,1018.57
2016-12-14T05:31:37.703Z,1018.54
2016-12-14T05:32:46.399Z,1018.51
2016-12-14T05:33:55.407Z,1018.49
2016-12-14T05:35:04.139Z,1018.5
2016-12-14T05:36:13.123Z,1018.52
2016-12-14T05:37:21.819Z,1018.54
2016-12-14T05:38:31.121Z,1018.53
2016-12-14T05:39:40.122Z,1018.51
2016-12-14T05:40:49.115Z,1018.56
2016-12-14T05:41:58.210Z,1018.53
2016-12-14T05:43:06.921Z,1018.56
2016-12-14T05:44:16.211Z,1018.53
2016-12-14T05:45:25.535Z,1018.51
2016-12-14T05:46:34.567Z,1018.56
2016-12-14T05:47:43.581Z,1018.57
2016-12-14T05:48:52.272Z,1018.59
2016-12-14T05:50:01.265Z,1018.64
2016-12-14T05:51:10.572Z,1018.6
2016-12-14T05:52:19.874Z,1018.63
2016-12-14T05:53:29.172Z,1018.63
2016-12-14T05:54:37.877Z,1018.59
2016-12-14T05:55:47.535Z,1018.6
2016-12-14T05:56:56.533Z,1018.62
2016-12-14T05:58:05.522Z,1018.63
2016-12-14T05:59:14.546Z,1018.63
2016-12-14T06:00:23.250Z,1018.63
2016-12-14T06:01:31.939Z,1018.59
2016-12-14T06:02:40.926Z,1018.61
2016-12-14T06:03:49.913Z,1018.59
2016-12-14T06:04:58.899Z,1018.63
2016-12-14T06:06:07.613Z,1018.63
2016-12-14T06:07:16.596Z,1018.65
2016-12-14T06:08:25.904Z,1018.68
2016-12-14T06:09:35.203Z,1018.71
2016-12-14T06:10:44.501Z,1018.7
2016-12-14T06:11:53.498Z,1018.71
2016-12-14T06:13:02.820Z,1018.73
2016-12-14T06:14:11.822Z,1018.74
2016-12-14T06:15:20.815Z,1018.74
2016-12-14T06:16:29.519Z,1018.76
2016-12-14T06:17:39.219Z,1018.78
2016-12-14T06:18:48.267Z,1018.75
2016-12-14T06:19:57.327Z,1018.77
2016-12-14T06:21:06.333Z,1018.73
2016-12-14T06:22:15.946Z,1018.77
2016-12-14T06:23:25.260Z,1018.78
2016-12-14T06:24:34.889Z,1018.82
2016-12-14T06:25:43.571Z,1018.79
2016-12-14T06:26:52.575Z,1018.84
2016-12-14T06:28:01.276Z,1018.87
2016-12-14T06:29:10.303Z,1018.85
2016-12-14T06:30:19.618Z,1018.83
2016-12-14T06:31:28.618Z,1018.84
2016-12-14T06:32:37.626Z,1018.82
2016-12-14T06:33:46.616Z,1018.81
2016-12-14T06:34:55.308Z,1018.81
2016-12-14T06:36:04.298Z,1018.79
2016-12-14T06:37:13.627Z,1018.79
2016-12-14T06:38:22.612Z,1018.78
2016-12-14T06:39:31.606Z,1018.76
2016-12-14T06:40:40.912Z,1018.78
2016-12-14T06:41:50.215Z,1018.78
2016-12-14T06:42:59.217Z,1018.78
2016-12-14T06:44:08.255Z,1018.8
2016-12-14T06:45:16.943Z,1018.8
2016-12-14T06:46:26.008Z,1018.79
2016-12-14T06:47:35.328Z,1018.82
2016-12-14T06:48:44.022Z,1018.79
2016-12-14T06:49:53.056Z,1018.86
2016-12-14T06:51:01.743Z,1018.84
2016-12-14T06:52:10.423Z,1018.87
2016-12-14T06:53:19.763Z,1018.84
2016-12-14T06:54:30.205Z,1018.87
2016-12-14T06:55:39.549Z,1018.88
2016-12-14T06:56:48.300Z,1018.85
2016-12-14T06:57:57.377Z,1018.88
2016-12-14T06:59:06.402Z,1018.85
2016-12-14T07:00:15.731Z,1018.88
2016-12-14T07:01:25.021Z,1018.87
2016-12-14T07:02:34.007Z,1018.88
2016-12-14T07:03:43.035Z,1018.87
2016-12-14T07:04:52.390Z,1018.85
2016-12-14T07:06:01.944Z,1018.85
2016-12-14T07:07:10.735Z,1018.82
2016-12-14T07:08:19.749Z,1018.79
2016-12-14T07:09:29.011Z,1018.82
2016-12-14T07:10:37.713Z,1018.81
2016-12-14T07:11:46.447Z,1018.81
2016-12-14T07:12:55.449Z,1018.81
2016-12-14T07:14:04.522Z,1018.82
2016-12-14T07:15:13.210Z,1018.82
2016-12-14T07:16:22.829Z,1018.83
2016-12-14T07:17:31.508Z,1018.8
2016-12-14T07:18:40.197Z,1018.81
2016-12-14T07:19:49.490Z,1018.8
2016-12-14T07:20:58.481Z,1018.8
2016-12-14T07:22:07.183Z,1018.86
2016-12-14T07:23:15.878Z,1018.84
2016-12-14T07:24:24.576Z,1018.86
2016-12-14T07:25:33.274Z,1018.81
2016-12-14T07:26:42.268Z,1018.85
2016-12-14T07:27:51.267Z,1018.88
2016-12-14T07:29:00.265Z,1018.86
2016-12-14T07:30:08.949Z,1018.88
2016-12-14T07:31:17.653Z,1018.86
2016-12-14T07:32:26.343Z,1018.89
2016-12-14T07:33:35.353Z,1018.89
2016-12-14T07:34:44.347Z,1018.88
2016-12-14T07:35:53.045Z,1018.83
2016-12-14T07:37:02.049Z,1018.85
2016-12-14T07:38:11.344Z,1018.86
2016-12-14T07:39:20.331Z,1018.85
2016-12-14T07:40:29.636Z,1018.82
2016-12-14T07:41:38.319Z,1018.84
2016-12-14T07:42:47.656Z,1018.82
2016-12-14T07:43:56.647Z,1018.81
2016-12-14T07:45:06.339Z,1018.79
2016-12-14T07:46:15.031Z,1018.8
2016-12-14T07:47:24.345Z,1018.83
2016-12-14T07:48:33.025Z,1018.82
2016-12-14T07:49:41.890Z,1018.82
2016-12-14T07:50:51.215Z,1018.85
2016-12-14T07:52:00.201Z,1018.88
2016-12-14T07:53:08.899Z,1018.93
2016-12-14T07:54:17.894Z,1018.92
2016-12-14T07:55:26.583Z,1018.98
2016-12-14T07:56:35.884Z,1019.02
2016-12-14T07:57:45.175Z,1019.05
2016-12-14T07:58:54.481Z,1019.07
2016-12-14T08:00:03.493Z,1019.09
2016-12-14T08:01:12.173Z,1019.09
2016-12-14T08:02:20.857Z,1019.05
2016-12-14T08:03:29.871Z,1019.04
2016-12-14T08:04:38.551Z,1019.03
2016-12-14T08:05:47.545Z,1019.01
2016-12-14T08:06:56.232Z,1019.03
2016-12-14T08:08:05.533Z,1019.02
2016-12-14T08:09:14.547Z,1019.01
2016-12-14T08:10:23.845Z,1019.05
2016-12-14T08:11:33.161Z,1019.04
2016-12-14T08:12:42.146Z,1019.06
2016-12-14T08:13:51.174Z,1019.04
2016-12-14T08:14:59.869Z,1019.05
2016-12-14T08:16:08.867Z,1019.03
2016-12-14T08:17:17.556Z,1019.03
2016-12-14T08:18:26.876Z,1019.03
2016-12-14T08:19:36.186Z,1019.04
2016-12-14T08:20:45.201Z,1019.03
2016-12-14T08:21:53.892Z,1019.06
2016-12-14T08:23:02.912Z,1019.06
2016-12-14T08:24:12.224Z,1019.07
2016-12-14T08:25:21.254Z,1019.03
2016-12-14T08:26:29.944Z,1019.01
2016-12-14T08:27:38.948Z,1019.05
2016-12-14T08:28:47.669Z,1019.06
2016-12-14T08:29:56.348Z,1019.05
2016-12-14T08:31:05.385Z,1019.07
2016-12-14T08:32:14.072Z,1019.06
2016-12-14T08:33:23.069Z,1019.04
2016-12-14T08:34:32.083Z,1019.06
2016-12-14T08:35:40.780Z,1019.07
2016-12-14T08:36:50.384Z,1019.08
2016-12-14T08:37:59.377Z,1019.09
2016-12-14T08:39:08.385Z,1019.05
2016-12-14T08:40:17.394Z,1019.06
2016-12-14T08:41:27.011Z,1019.05
2016-12-14T08:42:35.702Z,1019.05
2016-12-14T08:43:45.029Z,1019.07
2016-12-14T08:44:54.036Z,1019.04
2016-12-14T08:46:03.639Z,1019.08
2016-12-14T08:47:12.625Z,1019.05
2016-12-14T08:48:22.227Z,1019.06
2016-12-14T08:49:30.958Z,1019.05
2016-12-14T08:50:40.568Z,1019.07
2016-12-14T08:51:50.172Z,1019.09
2016-12-14T08:52:59.161Z,1019.14
2016-12-14T08:54:07.846Z,1019.11
2016-12-14T08:55:16.534Z,1019.1
2016-12-14T08:56:25.839Z,1019.12
2016-12-14T08:57:34.534Z,1019.09
2016-12-14T08:58:43.528Z,1019.06
2016-12-14T08:59:52.841Z,1019.09
2016-12-14T09:01:01.846Z,1019.08
2016-12-14T09:02:10.847Z,1019.1
2016-12-14T09:03:19.516Z,1019.09
2016-12-14T09:04:28.817Z,1019.12
2016-12-14T09:05:37.496Z,1019.09
2016-12-14T09:06:47.095Z,1019.11
2016-12-14T09:07:56.381Z,1019.11
2016-12-14T09:09:05.707Z,1019.09
2016-12-14T09:10:14.711Z,1019.05
2016-12-14T09:11:23.444Z,1019.09
2016-12-14T09:12:32.771Z,1019.09
2016-12-14T09:13:41.770Z,1019.1
2016-12-14T09:14:51.059Z,1019.11
2016-12-14T09:16:00.370Z,1019.14
2016-12-14T09:17:09.672Z,1019.11
2016-12-14T09:18:18.698Z,1019.15
2016-12-14T09:19:27.693Z,1019.15
2016-12-14T09:20:36.748Z,1019.18
2016-12-14T09:21:46.114Z,1019.21
2016-12-14T09:22:55.746Z,1019.19
2016-12-14T09:24:05.049Z,1019.2
2016-12-14T09:25:14.053Z,1019.2
2016-12-14T09:26:22.768Z,1019.22
2016-12-14T09:27:32.079Z,1019.22
2016-12-14T09:28:40.773Z,1019.22
2016-12-14T09:29:49.770Z,1019.27
2016-12-14T09:30:58.480Z,1019.24
2016-12-14T09:32:07.782Z,1019.26
2016-12-14T09:33:17.089Z,1019.23
2016-12-14T09:34:26.372Z,1019.24
2016-12-14T09:35:35.666Z,1019.24
2016-12-14T09:36:44.357Z,1019.23
2016-12-14T09:37:53.048Z,1019.3
2016-12-14T09:39:02.043Z,1019.29
2016-12-14T09:40:10.911Z,1019.31
2016-12-14T09:41:20.597Z,1019.29
2016-12-14T09:42:29.583Z,1019.32
2016-12-14T09:43:38.591Z,1019.35
2016-12-14T09:44:47.595Z,1019.3
2016-12-14T09:45:56.596Z,1019.33
2016-12-14T09:47:05.606Z,1019.33
2016-12-14T09:48:14.590Z,1019.35
2016-12-14T09:49:23.579Z,1019.41
2016-12-14T09:50:32.577Z,1019.42
2016-12-14T09:51:41.600Z,1019.41
2016-12-14T09:52:50.914Z,1019.46
2016-12-14T09:53:59.615Z,1019.49
2016-12-14T09:55:08.317Z,1019.47
2016-12-14T09:56:17.335Z,1019.47
2016-12-14T09:57:26.644Z,1019.49
2016-12-14T09:58:36.551Z,1019.44
2016-12-14T09:59:45.862Z,1019.43
2016-12-14T10:00:54.554Z,1019.44
2016-12-14T10:02:03.869Z,1019.47
2016-12-14T10:03:12.574Z,1019.44
2016-12-14T10:04:21.599Z,1019.46
2016-12-14T10:05:30.282Z,1019.46
2016-12-14T10:06:39.265Z,1019.47
2016-12-14T10:07:47.984Z,1019.45
2016-12-14T10:08:56.677Z,1019.47
2016-12-14T10:10:06.014Z,1019.47
2016-12-14T10:11:15.005Z,1019.44
2016-12-14T10:12:24.021Z,1019.48
2016-12-14T10:13:33.331Z,1019.49
2016-12-14T10:14:42.373Z,1019.52
2016-12-14T10:15:51.380Z,1019.52
2016-12-14T10:17:00.086Z,1019.53
2016-12-14T10:18:09.419Z,1019.49
2016-12-14T10:19:18.412Z,1019.51
2016-12-14T10:20:27.121Z,1019.46
2016-12-14T10:21:36.435Z,1019.45
2016-12-14T10:22:45.430Z,1019.47
2016-12-14T10:23:54.729Z,1019.45
2016-12-14T10:25:03.458Z,1019.47
2016-12-14T10:26:12.457Z,1019.47
2016-12-14T10:27:21.221Z,1019.45
2016-12-14T10:28:30.523Z,1019.47
2016-12-14T10:29:39.512Z,1019.47
2016-12-14T10:30:48.191Z,1019.51
2016-12-14T10:31:57.181Z,1019.5
2016-12-14T10:33:05.865Z,1019.48
2016-12-14T10:34:15.168Z,1019.48
2016-12-14T10:35:24.197Z,1019.5
2016-12-14T10:36:33.208Z,1019.5
2016-12-14T10:37:42.216Z,1019.49
2016-12-14T10:38:51.212Z,1019.48
2016-12-14T10:39:59.952Z,1019.5
2016-12-14T10:41:08.956Z,1019.45
2016-12-14T10:42:17.944Z,1019.5
2016-12-14T10:43:26.931Z,1019.53
2016-12-14T10:44:35.619Z,1019.57
2016-12-14T10:45:45.225Z,1019.6
2016-12-14T10:46:54.842Z,1019.6
2016-12-14T10:48:04.156Z,1019.58
2016-12-14T10:49:12.908Z,1019.59
2016-12-14T10:50:21.592Z,1019.57
2016-12-14T10:51:30.901Z,1019.56
2016-12-14T10:52:39.604Z,1019.54
2016-12-14T10:53:48.613Z,1019.58
2016-12-14T10:54:57.292Z,1019.55
2016-12-14T10:56:06.599Z,1019.59
2016-12-14T10:57:15.589Z,1019.54
2016-12-14T10:58:24.582Z,1019.59
2016-12-14T10:59:33.570Z,1019.6
2016-12-14T11:00:42.274Z,1019.59
2016-12-14T11:01:50.964Z,1019.59
2016-12-14T11:02:59.677Z,1019.6
2016-12-14T11:04:08.983Z,1019.55
2016-12-14T11:05:17.687Z,1019.58
2016-12-14T11:06:26.379Z,1019.58
2016-12-14T11:07:35.978Z,1019.6
2016-12-14T11:08:44.687Z,1019.61
2016-12-14T11:09:53.400Z,1019.67
2016-12-14T11:11:02.119Z,1019.61
2016-12-14T11:12:11.438Z,1019.63
2016-12-14T11:13:20.430Z,1019.65
2016-12-14T11:14:29.458Z,1019.6
2016-12-14T11:15:38.750Z,1019.58
2016-12-14T11:16:47.763Z,1019.58
2016-12-14T11:17:56.462Z,1019.59
2016-12-14T11:19:05.448Z,1019.57
2016-12-14T11:20:14.163Z,1019.57
2016-12-14T11:21:23.178Z,1019.58
2016-12-14T11:22:31.867Z,1019.57
2016-12-14T11:23:40.876Z,1019.59
2016-12-14T11:24:50.259Z,1019.55
2016-12-14T11:25:59.557Z,1019.51
2016-12-14T11:27:08.852Z,1019.5
2016-12-14T11:28:17.868Z,1019.45
2016-12-14T11:29:26.586Z,1019.43
2016-12-14T11:30:35.618Z,1019.47
2016-12-14T11:31:44.923Z,1019.45
2016-12-14T11:32:53.919Z,1019.46
2016-12-14T11:34:02.904Z,1019.42
2016-12-14T11:35:11.892Z,1019.42
2016-12-14T11:36:21.182Z,1019.4
2016-12-14T11:37:30.468Z,1019.4
2016-12-14T11:38:39.142Z,1019.36
2016-12-14T11:39:47.879Z,1019.36
2016-12-14T11:40:56.566Z,1019.39
2016-12-14T11:42:05.261Z,1019.38
2016-12-14T11:43:13.964Z,1019.35
2016-12-14T11:44:23.258Z,1019.4
2016-12-14T11:45:32.277Z,1019.35
2016-12-14T11:46:41.276Z,1019.39
2016-12-14T11:47:50.573Z,1019.37
2016-12-14T11:48:59.577Z,1019.32
2016-12-14T11:50:08.266Z,1019.36
2016-12-14T11:51:17.568Z,1019.34
2016-12-14T11:52:27.179Z,1019.35
2016-12-14T11:53:36.172Z,1019.34
2016-12-14T11:54:45.492Z,1019.33
2016-12-14T11:55:54.485Z,1019.34
2016-12-14T11:57:04.101Z,1019.35
2016-12-14T11:58:13.094Z,1019.37
2016-12-14T11:59:21.774Z,1019.38
2016-12-14T12:00:30.457Z,1019.37
2016-12-14T12:01:39.453Z,1019.4
2016-12-14T12:02:48.143Z,1019.37
2016-12-14T12:03:57.451Z,1019.35
2016-12-14T12:05:06.458Z,1019.35
2016-12-14T12:06:15.457Z,1019.35
2016-12-14T12:07:24.812Z,1019.36
2016-12-14T12:08:33.496Z,1019.4
2016-12-14T12:09:42.184Z,1019.36
2016-12-14T12:10:51.794Z,1019.41
2016-12-14T12:12:00.791Z,1019.37
2016-12-14T12:13:09.481Z,1019.39
2016-12-14T12:14:18.162Z,1019.44
2016-12-14T12:15:27.469Z,1019.41
2016-12-14T12:16:36.161Z,1019.45
2016-12-14T12:17:45.152Z,1019.44
2016-12-14T12:18:54.140Z,1019.48
2016-12-14T12:20:03.425Z,1019.49
2016-12-14T12:21:12.425Z,1019.49
2016-12-14T12:22:21.730Z,1019.47
2016-12-14T12:23:31.038Z,1019.46
2016-12-14T12:24:40.038Z,1019.45
2016-12-14T12:25:49.033Z,1019.41
2016-12-14T12:26:58.332Z,1019.41
2016-12-14T12:28:07.022Z,1019.39
2016-12-14T12:29:16.335Z,1019.4
2016-12-14T12:30:25.961Z,1019.4
2016-12-14T12:31:34.957Z,1019.39
2016-12-14T12:32:44.255Z,1019.39
2016-12-14T12:33:53.248Z,1019.38
2016-12-14T12:35:01.931Z,1019.38
2016-12-14T12:36:10.988Z,1019.38
2016-12-14T12:37:20.000Z,1019.33
2016-12-14T12:38:28.705Z,1019.34
2016-12-14T12:39:37.693Z,1019.35
2016-12-14T12:40:47.300Z,1019.34
2016-12-14T12:41:56.601Z,1019.37
2016-12-14T12:43:05.892Z,1019.34
2016-12-14T12:44:14.920Z,1019.37
2016-12-14T12:45:23.903Z,1019.4
2016-12-14T12:46:32.576Z,1019.37
2016-12-14T12:47:41.561Z,1019.32
2016-12-14T12:48:50.301Z,1019.36
2016-12-14T12:49:58.972Z,1019.34
2016-12-14T12:51:08.268Z,1019.3
2016-12-14T12:52:16.959Z,1019.27
2016-12-14T12:53:26.265Z,1019.26
2016-12-14T12:54:34.954Z,1019.21
2016-12-14T12:55:44.277Z,1019.25
2016-12-14T12:56:53.889Z,1019.24
2016-12-14T12:58:02.887Z,1019.22
2016-12-14T12:59:11.893Z,1019.24
2016-12-14T13:00:20.901Z,1019.23
2016-12-14T13:01:30.216Z,1019.25
2016-12-14T13:02:39.241Z,1019.26
2016-12-14T13:03:47.947Z,1019.28
2016-12-14T13:04:56.958Z,1019.28
2016-12-14T13:06:06.258Z,1019.25
2016-12-14T13:07:14.952Z,1019.24
2016-12-14T13:08:23.949Z,1019.26
2016-12-14T13:09:32.966Z,1019.25
2016-12-14T13:10:41.977Z,1019.2
2016-12-14T13:11:50.667Z,1019.29
2016-12-14T13:12:59.972Z,1019.22
2016-12-14T13:14:09.296Z,1019.24
2016-12-14T13:15:17.980Z,1019.19
2016-12-14T13:16:26.710Z,1019.17
2016-12-14T13:17:36.017Z,1019.2
2016-12-14T13:18:45.007Z,1019.18
2016-12-14T13:19:54.311Z,1019.19
2016-12-14T13:21:02.985Z,1019.17
2016-12-14T13:22:11.986Z,1019.11
2016-12-14T13:23:20.980Z,1019.15
2016-12-14T13:24:29.676Z,1019.15
2016-12-14T13:25:38.684Z,1019.15
2016-12-14T13:26:47.673Z,1019.17
2016-12-14T13:27:56.663Z,1019.17
2016-12-14T13:29:05.661Z,1019.12
2016-12-14T13:30:14.382Z,1019.16
2016-12-14T13:31:23.370Z,1019.17
2016-12-14T13:32:32.347Z,1019.15
2016-12-14T13:33:41.661Z,1019.14
2016-12-14T13:34:50.364Z,1019.13
2016-12-14T13:35:59.061Z,1019.14
2016-12-14T13:37:08.376Z,1019.13
2016-12-14T13:38:17.065Z,1019.13
2016-12-14T13:39:26.067Z,1019.16
2016-12-14T13:40:34.768Z,1019.13
2016-12-14T13:41:43.748Z,1019.12
2016-12-14T13:42:52.761Z,1019.15
2016-12-14T13:44:01.480Z,1019.13
2016-12-14T13:45:10.470Z,1019.1
2016-12-14T13:46:19.163Z,1019.1
2016-12-14T13:47:28.455Z,1019.07
2016-12-14T13:48:37.156Z,1019.11
2016-12-14T13:49:46.135Z,1019.1
2016-12-14T13:50:55.737Z,1019.09
2016-12-14T13:52:05.037Z,1019.13
2016-12-14T13:53:14.021Z,1019.14
2016-12-14T13:54:23.316Z,1019.13
2016-12-14T13:55:32.311Z,1019.15
2016-12-14T13:56:41.337Z,1019.14
2016-12-14T13:57:50.345Z,1019.12
2016-12-14T13:58:59.355Z,1019.19
2016-12-14T14:00:08.023Z,1019.16
2016-12-14T14:01:16.715Z,1019.19
2016-12-14T14:02:25.723Z,1019.17